createdAt,value
2016-07-02T00:00:37.670Z,23.93
2016-07-02T00:01:37.705Z,23.95
2016-07-02T00:02:37.733Z,23.92
2016-07-02T00:03:37.764Z,23.87
2016-07-02T00:04:37.795Z,23.87
2016-07-02T00:05:37.819Z,23.91
2016-07-02T00:06:37.843Z,23.92
2016-07-02T00:07:37.874Z,23.83
2016-07-02T00:08:37.905Z,23.77
2016-07-02T00:09:37.930Z,23.81
2016-07-02T00:10:37.959Z,23.78
2016-07-02T00:11:37.991Z,23.8
2016-07-02T00:12:38.016Z,23.78
2016-07-02T00:13:38.051Z,23.78
2016-07-02T00:14:38.076Z,23.73
2016-07-02T00:15:38.107Z,23.74
2016-07-02T00:16:38.130Z,23.77
2016-07-02T00:17:38.169Z,23.68
2016-07-02T00:18:38.189Z,23.71
2016-07-02T00:19:38.219Z,23.66
2016-07-02T00:20:38.855Z,23.74
2016-07-02T00:21:38.278Z,23.62
2016-07-02T00:22:38.302Z,23.63
2016-07-02T00:23:38.333Z,23.62
2016-07-02T00:24:38.361Z,23.62
2016-07-02T00:25:38.389Z,23.54
2016-07-02T00:26:38.418Z,23.58
2016-07-02T00:27:38.450Z,23.54
2016-07-02T00:28:38.474Z,23.54
2016-07-02T00:29:38.505Z,23.58
2016-07-02T00:30:38.533Z,23.56
2016-07-02T00:31:38.561Z,23.46
2016-07-02T00:32:38.590Z,23.46
2016-07-02T00:33:39.228Z,23.47
2016-07-02T00:34:38.645Z,23.54
2016-07-02T00:35:38.675Z,23.47
2016-07-02T00:36:38.701Z,23.39
2016-07-02T00:37:38.728Z,23.39
2016-07-02T00:38:38.757Z,23.41
2016-07-02T00:39:38.785Z,23.32
2016-07-02T00:40:38.816Z,23.37
2016-07-02T00:41:38.843Z,23.36
2016-07-02T00:42:38.871Z,23.32
2016-07-02T00:43:38.898Z,23.31
2016-07-02T00:44:38.931Z,23.36
2016-07-02T00:45:38.952Z,23.28
2016-07-02T00:46:38.978Z,23.32
2016-07-02T00:47:39.002Z,23.27
2016-07-02T00:48:39.034Z,23.27
2016-07-02T00:49:39.066Z,23.2
2016-07-02T00:50:39.098Z,23.24
2016-07-02T00:51:39.126Z,23.25
2016-07-02T00:52:39.148Z,23.23
2016-07-02T00:53:39.174Z,23.18
2016-07-02T00:54:39.209Z,23.18
2016-07-02T00:55:39.238Z,23.13
2016-07-02T00:56:39.263Z,23.15
2016-07-02T00:57:39.286Z,23.1
2016-07-02T00:58:39.327Z,23.15
2016-07-02T00:59:39.343Z,23.06
2016-07-02T01:00:39.378Z,23.17
2016-07-02T01:01:39.408Z,23.03
2016-07-02T01:02:39.434Z,23.05
2016-07-02T01:03:39.455Z,23
2016-07-02T01:04:39.485Z,23.05
2016-07-02T01:05:39.514Z,23.03
2016-07-02T01:06:39.546Z,23.09
2016-07-02T01:07:39.571Z,22.99
2016-07-02T01:08:39.607Z,23.02
2016-07-02T01:09:39.627Z,22.94
2016-07-02T01:10:39.653Z,22.91
2016-07-02T01:11:39.681Z,22.94
2016-07-02T01:12:39.707Z,22.94
2016-07-02T01:13:39.737Z,22.87
2016-07-02T01:14:39.768Z,22.87
2016-07-02T01:15:39.792Z,22.81
2016-07-02T01:16:39.826Z,22.93
2016-07-02T01:17:40.455Z,22.81
2016-07-02T01:18:39.875Z,22.81
2016-07-02T01:19:39.902Z,22.93
2016-07-02T01:20:39.944Z,22.8
2016-07-02T01:21:39.960Z,22.8
2016-07-02T01:22:39.991Z,22.8
2016-07-02T01:23:40.011Z,22.66
2016-07-02T01:24:40.049Z,22.73
2016-07-02T01:25:40.067Z,22.7
2016-07-02T01:26:40.716Z,22.76
2016-07-02T01:27:40.121Z,22.75
2016-07-02T01:28:40.155Z,22.7
2016-07-02T01:29:40.181Z,22.68
2016-07-02T01:30:40.210Z,22.69
2016-07-02T01:31:40.232Z,22.72
2016-07-02T01:32:40.263Z,22.66
2016-07-02T01:33:40.290Z,22.7
2016-07-02T01:34:40.324Z,22.59
2016-07-02T01:35:40.349Z,22.59
2016-07-02T01:36:40.382Z,22.62
2016-07-02T01:37:40.399Z,22.68
2016-07-02T01:38:40.438Z,22.59
2016-07-02T01:39:40.463Z,22.55
2016-07-02T01:40:40.491Z,22.53
2016-07-02T01:41:40.516Z,22.59
2016-07-02T01:42:40.551Z,22.53
2016-07-02T01:43:40.565Z,22.63
2016-07-02T01:44:40.601Z,22.55
2016-07-02T01:45:40.628Z,22.53
2016-07-02T01:46:40.655Z,22.51
2016-07-02T01:47:40.685Z,22.5
2016-07-02T01:48:40.714Z,22.45
2016-07-02T01:49:40.735Z,22.51
2016-07-02T01:50:40.772Z,22.45
2016-07-02T01:51:40.789Z,22.47
2016-07-02T01:52:40.824Z,22.6
2016-07-02T01:53:40.846Z,22.43
2016-07-02T01:54:40.872Z,22.5
2016-07-02T01:55:40.901Z,22.53
2016-07-02T01:56:40.920Z,22.48
2016-07-02T01:57:40.954Z,22.45
2016-07-02T01:58:40.985Z,22.43
2016-07-02T01:59:41.010Z,22.5
2016-07-02T02:00:41.037Z,22.5
2016-07-02T02:01:41.065Z,22.47
2016-07-02T02:02:41.096Z,22.44
2016-07-02T02:03:41.126Z,22.48
2016-07-02T02:04:41.146Z,22.45
2016-07-02T02:05:41.172Z,22.36
2016-07-02T02:06:41.204Z,22.36
2016-07-02T02:07:41.226Z,22.43
2016-07-02T02:08:41.263Z,22.43
2016-07-02T02:09:41.285Z,22.39
2016-07-02T02:10:41.312Z,22.38
2016-07-02T02:11:41.337Z,22.41
2016-07-02T02:12:41.362Z,22.36
2016-07-02T02:13:41.390Z,22.33
2016-07-02T02:14:41.423Z,22.43
2016-07-02T02:15:41.449Z,22.38
2016-07-02T02:16:41.476Z,22.36
2016-07-02T02:17:41.494Z,22.35
2016-07-02T02:18:41.530Z,22.32
2016-07-02T02:19:41.550Z,22.3
2016-07-02T02:20:41.582Z,22.33
2016-07-02T02:21:41.611Z,22.36
2016-07-02T02:22:41.641Z,22.33
2016-07-02T02:23:41.667Z,22.35
2016-07-02T02:24:41.694Z,22.33
2016-07-02T02:25:41.718Z,22.3
2016-07-02T02:26:41.753Z,22.32
2016-07-02T02:27:41.777Z,22.3
2016-07-02T02:28:41.803Z,22.23
2016-07-02T02:29:41.841Z,22.3
2016-07-02T02:30:41.863Z,22.3
2016-07-02T02:31:41.899Z,22.25
2016-07-02T02:32:41.918Z,22.28
2016-07-02T02:33:41.956Z,22.29
2016-07-02T02:34:41.968Z,22.29
2016-07-02T02:35:41.995Z,22.29
2016-07-02T02:36:42.041Z,22.26
2016-07-02T02:37:42.052Z,22.26
2016-07-02T02:38:42.098Z,22.3
2016-07-02T02:39:42.108Z,22.26
2016-07-02T02:40:42.128Z,22.26
2016-07-02T02:41:42.153Z,22.29
2016-07-02T02:42:42.182Z,22.28
2016-07-02T02:43:42.206Z,22.28
2016-07-02T02:44:42.238Z,22.28
2016-07-02T02:45:42.268Z,22.26
2016-07-02T02:46:42.293Z,22.23
2016-07-02T02:47:42.319Z,22.23
2016-07-02T02:48:42.351Z,22.26
2016-07-02T02:49:42.375Z,22.29
2016-07-02T02:50:42.402Z,22.18
2016-07-02T02:51:42.432Z,22.23
2016-07-02T02:52:42.458Z,22.29
2016-07-02T02:53:42.484Z,22.23
2016-07-02T02:54:42.512Z,22.22
2016-07-02T02:55:42.553Z,22.26
2016-07-02T02:56:42.564Z,22.26
2016-07-02T02:57:42.603Z,22.26
2016-07-02T02:58:42.615Z,22.2
2016-07-02T02:59:42.640Z,22.26
2016-07-02T03:00:42.671Z,22.22
2016-07-02T03:01:42.694Z,22.23
2016-07-02T03:02:42.722Z,22.22
2016-07-02T03:03:42.754Z,22.25
2016-07-02T03:04:42.774Z,22.2
2016-07-02T03:05:42.803Z,22.26
2016-07-02T03:06:42.833Z,22.14
2016-07-02T03:07:42.857Z,22.14
2016-07-02T03:08:42.888Z,22.11
2016-07-02T03:09:42.909Z,22.13
2016-07-02T03:10:42.938Z,22.14
2016-07-02T03:11:42.962Z,22.15
2016-07-02T03:12:42.998Z,22.17
2016-07-02T03:13:43.015Z,22.11
2016-07-02T03:14:43.048Z,22.22
2016-07-02T03:15:43.691Z,22.17
2016-07-02T03:16:43.095Z,22.15
2016-07-02T03:17:43.127Z,22.2
2016-07-02T03:18:43.159Z,22.11
2016-07-02T03:19:43.181Z,22
2016-07-02T03:20:43.211Z,22
2016-07-02T03:21:43.239Z,22.06
2016-07-02T03:22:43.261Z,22.02
2016-07-02T03:23:43.292Z,22.02
2016-07-02T03:24:43.312Z,22.08
2016-07-02T03:25:43.347Z,22.06
2016-07-02T03:26:43.370Z,21.99
2016-07-02T03:27:43.394Z,22.07
2016-07-02T03:28:43.419Z,21.99
2016-07-02T03:29:43.447Z,21.99
2016-07-02T03:30:43.480Z,22.08
2016-07-02T03:31:43.512Z,22.07
2016-07-02T03:32:43.533Z,22.07
2016-07-02T03:33:43.566Z,21.99
2016-07-02T03:34:43.589Z,22.02
2016-07-02T03:35:43.615Z,22.06
2016-07-02T03:36:43.639Z,21.96
2016-07-02T03:37:43.670Z,22.06
2016-07-02T03:38:43.693Z,22
2016-07-02T03:39:43.717Z,21.99
2016-07-02T03:40:43.750Z,22.04
2016-07-02T03:41:43.778Z,21.99
2016-07-02T03:42:43.803Z,22.02
2016-07-02T03:43:43.828Z,22.02
2016-07-02T03:44:43.856Z,22
2016-07-02T03:45:43.883Z,21.96
2016-07-02T03:46:43.911Z,21.99
2016-07-02T03:47:43.935Z,21.99
2016-07-02T03:48:43.965Z,21.98
2016-07-02T03:49:43.991Z,22
2016-07-02T03:50:44.633Z,21.98
2016-07-02T03:51:44.040Z,22
2016-07-02T03:52:44.071Z,21.99
2016-07-02T03:53:44.097Z,21.99
2016-07-02T03:54:44.129Z,22.04
2016-07-02T03:55:44.147Z,22.02
2016-07-02T03:56:44.179Z,22
2016-07-02T03:57:44.202Z,22
2016-07-02T03:58:44.231Z,22
2016-07-02T03:59:44.257Z,21.99
2016-07-02T04:00:44.290Z,21.99
2016-07-02T04:01:44.312Z,22.04
2016-07-02T04:02:44.339Z,22.04
2016-07-02T04:03:44.366Z,22.02
2016-07-02T04:04:44.397Z,21.99
2016-07-02T04:05:44.419Z,22.06
2016-07-02T04:06:44.447Z,21.99
2016-07-02T04:07:44.472Z,21.98
2016-07-02T04:08:44.506Z,22.07
2016-07-02T04:09:44.528Z,21.95
2016-07-02T04:10:44.550Z,22.07
2016-07-02T04:11:44.606Z,22.04
2016-07-02T04:12:44.617Z,22.02
2016-07-02T04:13:44.629Z,21.99
2016-07-02T04:14:44.660Z,22.04
2016-07-02T04:15:44.684Z,22.04
2016-07-02T04:16:44.716Z,22.02
2016-07-02T04:17:44.745Z,22.08
2016-07-02T04:18:44.771Z,22.17
2016-07-02T04:19:44.799Z,22.2
2016-07-02T04:20:44.823Z,22.14
2016-07-02T04:21:44.845Z,22.2
2016-07-02T04:22:44.890Z,22.1
2016-07-02T04:23:44.901Z,22.1
2016-07-02T04:24:44.931Z,22.1
2016-07-02T04:25:44.955Z,22.14
2016-07-02T04:26:44.987Z,22.08
2016-07-02T04:27:45.012Z,22.17
2016-07-02T04:28:45.041Z,22.2
2016-07-02T04:29:45.061Z,22.26
2016-07-02T04:30:45.095Z,22.29
2016-07-02T04:31:45.121Z,22.23
2016-07-02T04:32:45.149Z,22.22
2016-07-02T04:33:45.173Z,22.2
2016-07-02T04:34:45.197Z,22.26
2016-07-02T04:35:45.219Z,22.26
2016-07-02T04:36:45.250Z,22.26
2016-07-02T04:37:45.272Z,22.26
2016-07-02T04:38:45.305Z,22.29
2016-07-02T04:39:45.330Z,22.28
2016-07-02T04:40:45.360Z,22.32
2016-07-02T04:41:45.383Z,22.3
2016-07-02T04:42:45.424Z,22.26
2016-07-02T04:43:45.442Z,22.36
2016-07-02T04:44:45.480Z,22.35
2016-07-02T04:45:45.498Z,22.35
2016-07-02T04:46:45.524Z,22.35
2016-07-02T04:47:46.160Z,22.36
2016-07-02T04:48:45.587Z,22.36
2016-07-02T04:49:45.602Z,22.39
2016-07-02T04:50:45.643Z,22.39
2016-07-02T04:51:45.649Z,22.41
2016-07-02T04:52:45.687Z,22.41
2016-07-02T04:53:45.711Z,22.38
2016-07-02T04:54:45.740Z,22.45
2016-07-02T04:55:45.761Z,22.45
2016-07-02T04:56:45.789Z,22.43
2016-07-02T04:57:45.815Z,22.41
2016-07-02T04:58:45.842Z,22.45
2016-07-02T04:59:45.872Z,22.48
2016-07-02T05:00:45.895Z,22.5
2016-07-02T05:01:45.923Z,22.55
2016-07-02T05:02:45.965Z,22.44
2016-07-02T05:03:45.981Z,22.51
2016-07-02T05:04:46.003Z,22.55
2016-07-02T05:05:46.028Z,22.44
2016-07-02T05:06:46.063Z,22.55
2016-07-02T05:07:46.082Z,22.47
2016-07-02T05:08:46.112Z,22.47
2016-07-02T05:09:46.130Z,22.51
2016-07-02T05:10:46.239Z,22.53
2016-07-02T05:11:46.195Z,22.6
2016-07-02T05:12:46.253Z,22.65
2016-07-02T05:13:46.244Z,22.54
2016-07-02T05:14:46.277Z,22.59
2016-07-02T05:15:46.405Z,22.59
2016-07-02T05:16:46.331Z,22.69
2016-07-02T05:17:46.355Z,22.66
2016-07-02T05:18:46.382Z,22.65
2016-07-02T05:19:46.407Z,22.7
2016-07-02T05:20:46.438Z,22.7
2016-07-02T05:21:46.467Z,22.72
2016-07-02T05:22:46.523Z,22.84
2016-07-02T05:23:46.517Z,22.75
2016-07-02T05:24:46.549Z,22.88
2016-07-02T05:25:46.576Z,22.8
2016-07-02T05:26:46.606Z,22.8
2016-07-02T05:27:46.628Z,22.9
2016-07-02T05:28:46.662Z,22.9
2016-07-02T05:29:46.679Z,22.93
2016-07-02T05:30:46.710Z,22.96
2016-07-02T05:31:46.738Z,22.99
2016-07-02T05:32:46.775Z,23
2016-07-02T05:33:46.792Z,23
2016-07-02T05:34:46.824Z,23.02
2016-07-02T05:35:46.847Z,23
2016-07-02T05:36:46.871Z,23.08
2016-07-02T05:37:46.899Z,23.17
2016-07-02T05:38:46.935Z,23.1
2016-07-02T05:39:46.955Z,23.09
2016-07-02T05:40:46.978Z,23.12
2016-07-02T05:41:47.009Z,23.06
2016-07-02T05:42:47.037Z,23.2
2016-07-02T05:43:47.064Z,23.2
2016-07-02T05:44:47.088Z,23.24
2016-07-02T05:45:47.116Z,23.2
2016-07-02T05:46:47.141Z,23.25
2016-07-02T05:47:47.176Z,23.36
2016-07-02T05:48:47.208Z,23.37
2016-07-02T05:49:47.229Z,23.41
2016-07-02T05:50:47.255Z,23.37
2016-07-02T05:51:47.281Z,23.32
2016-07-02T05:52:47.310Z,23.39
2016-07-02T05:53:47.343Z,23.4
2016-07-02T05:54:47.366Z,23.5
2016-07-02T05:55:47.392Z,23.51
2016-07-02T05:56:47.419Z,23.56
2016-07-02T05:57:47.448Z,23.58
2016-07-02T05:58:47.470Z,23.56
2016-07-02T05:59:47.492Z,23.56
2016-07-02T06:00:48.139Z,23.66
2016-07-02T06:01:47.550Z,23.61
2016-07-02T06:02:47.570Z,23.68
2016-07-02T06:03:47.609Z,23.68
2016-07-02T06:04:47.638Z,23.73
2016-07-02T06:05:47.665Z,23.73
2016-07-02T06:06:47.697Z,23.68
2016-07-02T06:07:47.721Z,23.66
2016-07-02T06:08:47.742Z,23.65
2016-07-02T06:09:47.776Z,23.73
2016-07-02T06:10:47.799Z,23.77
2016-07-02T06:11:47.825Z,23.83
2016-07-02T06:12:47.857Z,23.69
2016-07-02T06:13:47.882Z,23.77
2016-07-02T06:14:47.910Z,23.83
2016-07-02T06:15:47.936Z,23.78
2016-07-02T06:16:47.965Z,23.86
2016-07-02T06:17:48.007Z,23.88
2016-07-02T06:18:48.019Z,23.81
2016-07-02T06:19:48.046Z,23.86
2016-07-02T06:20:48.081Z,23.84
2016-07-02T06:21:48.102Z,23.96
2016-07-02T06:22:48.131Z,23.93
2016-07-02T06:23:48.161Z,23.93
2016-07-02T06:24:48.191Z,23.92
2016-07-02T06:25:48.215Z,23.93
2016-07-02T06:26:48.236Z,23.99
2016-07-02T06:27:48.270Z,24.02
2016-07-02T06:28:48.302Z,24.01
2016-07-02T06:29:48.315Z,24.01
2016-07-02T06:30:48.356Z,24.13
2016-07-02T06:31:48.375Z,24.1
2016-07-02T06:32:48.408Z,24.16
2016-07-02T06:33:48.433Z,24.08
2016-07-02T06:34:48.476Z,24.14
2016-07-02T06:35:48.646Z,24.14
2016-07-02T06:36:48.521Z,24.21
2016-07-02T06:37:48.540Z,24.21
2016-07-02T06:38:48.574Z,24.29
2016-07-02T06:39:48.603Z,24.38
2016-07-02T06:40:48.632Z,24.33
2016-07-02T06:41:48.660Z,24.36
2016-07-02T06:42:48.691Z,24.43
2016-07-02T06:43:48.717Z,24.39
2016-07-02T06:44:48.748Z,24.48
2016-07-02T06:45:48.768Z,24.51
2016-07-02T06:46:48.807Z,24.53
2016-07-02T06:47:48.822Z,24.57
2016-07-02T06:48:48.856Z,24.61
2016-07-02T06:49:48.881Z,24.68
2016-07-02T06:50:48.907Z,24.69
2016-07-02T06:51:48.942Z,24.6
2016-07-02T06:52:48.973Z,24.66
2016-07-02T06:53:48.995Z,24.76
2016-07-02T06:54:49.027Z,24.81
2016-07-02T06:55:49.053Z,24.73
2016-07-02T06:56:49.081Z,24.73
2016-07-02T06:57:49.107Z,24.84
2016-07-02T06:58:49.141Z,24.86
2016-07-02T06:59:49.160Z,24.84
2016-07-02T07:00:49.195Z,24.86
2016-07-02T07:01:49.221Z,24.96
2016-07-02T07:02:49.253Z,24.96
2016-07-02T07:03:49.283Z,25.01
2016-07-02T07:04:49.304Z,24.96
2016-07-02T07:05:49.334Z,25.08
2016-07-02T07:06:49.362Z,25.07
2016-07-02T07:07:49.391Z,25.16
2016-07-02T07:08:49.434Z,25.13
2016-07-02T07:09:49.446Z,25.17
2016-07-02T07:10:49.476Z,25.22
2016-07-02T07:11:49.512Z,25.23
2016-07-02T07:12:49.535Z,25.29
2016-07-02T07:13:50.176Z,25.31
2016-07-02T07:14:50.204Z,25.35
2016-07-02T07:15:49.616Z,25.35
2016-07-02T07:16:49.647Z,25.38
2016-07-02T07:17:49.670Z,25.35
2016-07-02T07:18:49.703Z,25.38
2016-07-02T07:19:49.732Z,25.43
2016-07-02T07:20:49.766Z,25.48
2016-07-02T07:21:49.794Z,25.46
2016-07-02T07:22:49.824Z,25.47
2016-07-02T07:23:49.845Z,25.55
2016-07-02T07:24:49.876Z,25.62
2016-07-02T07:25:49.908Z,25.55
2016-07-02T07:26:49.936Z,25.6
2016-07-02T07:27:49.959Z,25.62
2016-07-02T07:28:50.008Z,25.72
2016-07-02T07:29:50.014Z,25.63
2016-07-02T07:30:50.040Z,25.75
2016-07-02T07:31:50.077Z,25.68
2016-07-02T07:32:50.102Z,25.7
2016-07-02T07:33:50.140Z,25.75
2016-07-02T07:34:50.163Z,25.77
2016-07-02T07:35:50.836Z,25.72
2016-07-02T07:36:50.218Z,25.72
2016-07-02T07:37:50.252Z,25.75
2016-07-02T07:38:50.325Z,25.72
2016-07-02T07:39:50.305Z,25.73
2016-07-02T07:40:50.335Z,25.68
2016-07-02T07:41:50.365Z,25.77
2016-07-02T07:42:50.396Z,25.81
2016-07-02T07:43:50.424Z,25.72
2016-07-02T07:44:50.458Z,25.78
2016-07-02T07:45:50.488Z,25.77
2016-07-02T07:46:50.604Z,25.73
2016-07-02T07:47:50.540Z,25.77
2016-07-02T07:48:50.574Z,25.72
2016-07-02T07:49:50.603Z,25.8
2016-07-02T07:50:50.625Z,25.78
2016-07-02T07:51:51.363Z,25.73
2016-07-02T07:52:50.679Z,25.73
2016-07-02T07:53:50.711Z,25.8
2016-07-02T07:54:50.739Z,25.81
2016-07-02T07:55:50.830Z,25.81
2016-07-02T07:56:50.789Z,25.83
2016-07-02T07:57:50.829Z,25.8
2016-07-02T07:58:50.857Z,25.8
2016-07-02T07:59:50.892Z,25.84
2016-07-02T08:00:50.914Z,25.98
2016-07-02T08:01:50.949Z,25.93
2016-07-02T08:02:50.978Z,25.91
2016-07-02T08:03:51.007Z,25.93
2016-07-02T08:04:51.034Z,25.88
2016-07-02T08:05:51.067Z,25.96
2016-07-02T08:06:51.092Z,26
2016-07-02T08:07:51.119Z,25.99
2016-07-02T08:08:51.151Z,25.91
2016-07-02T08:09:51.182Z,25.96
2016-07-02T08:10:51.238Z,25.99
2016-07-02T08:11:51.336Z,25.99
2016-07-02T08:12:51.364Z,26.02
2016-07-02T08:13:51.299Z,25.98
2016-07-02T08:14:51.429Z,26.06
2016-07-02T08:15:51.358Z,26.1
2016-07-02T08:16:51.473Z,26.13
2016-07-02T08:17:51.451Z,26.05
2016-07-02T08:18:51.459Z,26.07
2016-07-02T08:19:51.483Z,26.13
2016-07-02T08:20:51.500Z,26.18
2016-07-02T08:21:51.532Z,26.09
2016-07-02T08:22:51.612Z,26.07
2016-07-02T08:23:51.746Z,26.23
2016-07-02T08:24:51.757Z,26.22
2016-07-02T08:25:51.826Z,26.21
2016-07-02T08:26:51.674Z,26.23
2016-07-02T08:27:51.711Z,26.18
2016-07-02T08:28:51.734Z,26.15
2016-07-02T08:29:51.855Z,26.21
2016-07-02T08:30:51.881Z,26.16
2016-07-02T08:31:51.818Z,26.21
2016-07-02T08:32:51.852Z,26.23
2016-07-02T08:33:51.876Z,26.21
2016-07-02T08:34:51.910Z,26.18
2016-07-02T08:35:51.945Z,26.22
2016-07-02T08:36:51.970Z,26.23
2016-07-02T08:37:52.097Z,26.23
2016-07-02T08:38:52.077Z,26.13
2016-07-02T08:39:52.056Z,26.18
2016-07-02T08:40:52.087Z,26.21
2016-07-02T08:41:52.204Z,26.16
2016-07-02T08:42:52.182Z,26.13
2016-07-02T08:43:52.173Z,26.23
2016-07-02T08:44:52.206Z,26.29
2016-07-02T08:45:52.234Z,26.28
2016-07-02T08:46:52.262Z,26.36
2016-07-02T08:47:52.904Z,26.33
2016-07-02T08:48:52.318Z,26.36
2016-07-02T08:49:52.358Z,26.43
2016-07-02T08:50:52.379Z,26.41
2016-07-02T08:51:52.408Z,26.44
2016-07-02T08:52:52.433Z,26.44
2016-07-02T08:53:52.471Z,26.44
2016-07-02T08:54:52.490Z,26.47
2016-07-02T08:55:52.630Z,26.44
2016-07-02T08:56:52.553Z,26.45
2016-07-02T08:57:53.210Z,26.44
2016-07-02T08:58:52.707Z,26.43
2016-07-02T08:59:52.716Z,26.41
2016-07-02T09:00:52.721Z,26.45
2016-07-02T09:01:52.769Z,26.43
2016-07-02T09:02:52.726Z,26.41
2016-07-02T09:03:52.776Z,26.41
2016-07-02T09:04:52.788Z,26.43
2016-07-02T09:05:52.822Z,26.41
2016-07-02T09:06:52.900Z,26.38
2016-07-02T09:07:52.880Z,26.44
2016-07-02T09:08:52.911Z,26.4
2016-07-02T09:09:52.945Z,26.37
2016-07-02T09:10:53.071Z,26.41
2016-07-02T09:11:53.045Z,26.36
2016-07-02T09:12:53.030Z,26.4
2016-07-02T09:13:53.062Z,26.31
2016-07-02T09:14:53.085Z,26.37
2016-07-02T09:15:53.124Z,26.38
2016-07-02T09:16:53.149Z,26.4
2016-07-02T09:17:53.178Z,26.43
2016-07-02T09:18:53.206Z,26.38
2016-07-02T09:19:53.237Z,26.41
2016-07-02T09:20:53.264Z,26.43
2016-07-02T09:21:53.389Z,26.43
2016-07-02T09:22:53.541Z,26.45
2016-07-02T09:23:53.455Z,26.47
2016-07-02T09:24:53.386Z,26.51
2016-07-02T09:25:53.417Z,26.44
2016-07-02T09:26:53.441Z,26.48
2016-07-02T09:27:54.083Z,26.52
2016-07-02T09:28:53.632Z,26.55
2016-07-02T09:29:53.532Z,26.6
2016-07-02T09:30:53.565Z,26.59
2016-07-02T09:31:53.596Z,26.66
2016-07-02T09:32:53.624Z,26.6
2016-07-02T09:33:53.666Z,26.66
2016-07-02T09:34:53.707Z,26.68
2016-07-02T09:35:53.714Z,26.65
2016-07-02T09:36:53.751Z,26.65
2016-07-02T09:37:53.772Z,26.83
2016-07-02T09:38:53.806Z,26.85
2016-07-02T09:39:53.831Z,26.84
2016-07-02T09:40:53.858Z,26.83
2016-07-02T09:41:53.894Z,26.88
2016-07-02T09:42:53.922Z,26.8
2016-07-02T09:43:53.959Z,26.8
2016-07-02T09:44:53.980Z,26.77
2016-07-02T09:45:54.012Z,26.71
2016-07-02T09:46:54.044Z,26.84
2016-07-02T09:47:54.069Z,26.89
2016-07-02T09:48:54.105Z,26.85
2016-07-02T09:49:54.134Z,26.85
2016-07-02T09:50:54.778Z,26.93
2016-07-02T09:51:54.198Z,26.88
2016-07-02T09:52:54.220Z,26.92
2016-07-02T09:53:54.355Z,26.92
2016-07-02T09:54:54.345Z,26.89
2016-07-02T09:55:54.427Z,26.88
2016-07-02T09:56:54.350Z,26.96
2016-07-02T09:57:54.372Z,26.89
2016-07-02T09:58:54.413Z,26.9
2016-07-02T09:59:54.435Z,26.96
2016-07-02T10:00:54.460Z,26.92
2016-07-02T10:01:54.496Z,26.93
2016-07-02T10:02:54.524Z,26.85
2016-07-02T10:03:54.559Z,26.88
2016-07-02T10:04:54.584Z,26.85
2016-07-02T10:05:54.616Z,26.84
2016-07-02T10:06:54.645Z,26.84
2016-07-02T10:07:54.867Z,26.8
2016-07-02T10:08:55.689Z,26.62
2016-07-02T10:09:54.960Z,26.66
2016-07-02T10:10:54.911Z,26.6
2016-07-02T10:11:54.947Z,26.65
2016-07-02T10:12:55.121Z,26.58
2016-07-02T10:13:54.889Z,26.53
2016-07-02T10:14:54.944Z,26.44
2016-07-02T10:15:54.972Z,26.45
2016-07-02T10:16:55.097Z,26.43
2016-07-02T10:17:55.124Z,26.36
2016-07-02T10:18:55.278Z,26.31
2016-07-02T10:19:55.258Z,26.31
2016-07-02T10:20:55.426Z,26.25
2016-07-02T10:21:55.465Z,26.1
2016-07-02T10:22:55.458Z,26.22
2016-07-02T10:23:55.451Z,26.16
2016-07-02T10:24:55.458Z,26.02
2016-07-02T10:25:55.478Z,25.99
2016-07-02T10:26:55.479Z,25.96
2016-07-02T10:27:55.470Z,25.87
2016-07-02T10:28:55.540Z,25.83
2016-07-02T10:29:55.469Z,25.72
2016-07-02T10:30:55.500Z,25.7
2016-07-02T10:31:55.496Z,25.59
2016-07-02T10:32:55.510Z,25.58
2016-07-02T10:33:55.514Z,25.59
2016-07-02T10:34:55.614Z,25.4
2016-07-02T10:35:55.577Z,25.41
2016-07-02T10:36:55.608Z,25.31
2016-07-02T10:37:55.631Z,25.26
2016-07-02T10:38:55.662Z,25.21
2016-07-02T10:39:55.689Z,25.17
2016-07-02T10:40:55.717Z,25.11
2016-07-02T10:41:55.736Z,25.14
2016-07-02T10:42:55.759Z,25.03
2016-07-02T10:43:55.799Z,24.96
2016-07-02T10:44:55.814Z,24.89
2016-07-02T10:45:55.856Z,24.85
2016-07-02T10:46:55.865Z,24.85
2016-07-02T10:47:55.908Z,24.78
2016-07-02T10:48:55.936Z,24.8
2016-07-02T10:49:55.964Z,24.77
2016-07-02T10:50:55.991Z,24.68
2016-07-02T10:51:56.035Z,24.68
2016-07-02T10:52:56.048Z,24.69
2016-07-02T10:53:56.084Z,24.65
2016-07-02T10:54:56.095Z,24.57
2016-07-02T10:55:56.124Z,24.54
2016-07-02T10:56:56.165Z,24.54
2016-07-02T10:57:56.189Z,24.54
2016-07-02T10:58:56.250Z,24.55
2016-07-02T10:59:56.244Z,24.55
2016-07-02T11:00:56.279Z,24.47
2016-07-02T11:01:56.308Z,24.47
2016-07-02T11:02:56.353Z,24.43
2016-07-02T11:03:56.367Z,24.51
2016-07-02T11:04:56.392Z,24.39
2016-07-02T11:05:56.451Z,24.4
2016-07-02T11:06:56.475Z,24.35
2016-07-02T11:07:56.501Z,24.4
2016-07-02T11:08:56.516Z,24.36
2016-07-02T11:09:56.561Z,24.28
2016-07-02T11:10:56.595Z,24.24
2016-07-02T11:11:56.613Z,24.23
2016-07-02T11:12:56.636Z,24.26
2016-07-02T11:13:56.664Z,24.24
2016-07-02T11:14:56.700Z,24.26
2016-07-02T11:15:56.738Z,24.28
2016-07-02T11:16:56.738Z,24.2
2016-07-02T11:17:56.771Z,24.2
2016-07-02T11:18:56.798Z,24.24
2016-07-02T11:19:56.831Z,24.2
2016-07-02T11:20:56.882Z,24.24
2016-07-02T11:21:56.893Z,24.24
2016-07-02T11:22:56.925Z,24.2
2016-07-02T11:23:56.968Z,24.18
2016-07-02T11:24:56.975Z,24.28
2016-07-02T11:25:56.999Z,24.29
2016-07-02T11:26:57.031Z,24.24
2016-07-02T11:27:57.080Z,24.3
2016-07-02T11:28:57.101Z,24.28
2016-07-02T11:29:57.127Z,24.32
2016-07-02T11:30:57.164Z,24.28
2016-07-02T11:31:57.190Z,24.29
2016-07-02T11:32:57.222Z,24.32
2016-07-02T11:33:57.249Z,24.28
2016-07-02T11:34:57.268Z,24.3
2016-07-02T11:35:57.304Z,24.28
2016-07-02T11:36:57.348Z,24.26
2016-07-02T11:37:57.360Z,24.21
2016-07-02T11:38:57.406Z,24.24
2016-07-02T11:39:57.415Z,24.23
2016-07-02T11:40:57.446Z,24.21
2016-07-02T11:41:57.486Z,24.2
2016-07-02T11:42:57.506Z,24.2
2016-07-02T11:43:57.544Z,24.2
2016-07-02T11:44:57.569Z,24.16
2016-07-02T11:45:57.592Z,24.21
2016-07-02T11:46:57.638Z,24.21
2016-07-02T11:47:57.852Z,24.17
2016-07-02T11:48:57.695Z,24.21
2016-07-02T11:49:57.722Z,24.24
2016-07-02T11:50:57.753Z,24.29
2016-07-02T11:51:57.783Z,24.29
2016-07-02T11:52:57.803Z,24.32
2016-07-02T11:53:57.840Z,24.39
2016-07-02T11:54:57.856Z,24.39
2016-07-02T11:55:57.883Z,24.38
2016-07-02T11:56:57.905Z,24.4
2016-07-02T11:57:57.963Z,24.51
2016-07-02T11:58:57.984Z,24.43
2016-07-02T11:59:58.002Z,24.54
2016-07-02T12:00:58.037Z,24.51
2016-07-02T12:01:58.067Z,24.51
2016-07-02T12:02:58.093Z,24.55
2016-07-02T12:03:58.133Z,24.53
2016-07-02T12:04:58.178Z,24.6
2016-07-02T12:05:58.176Z,24.54
2016-07-02T12:06:58.210Z,24.54
2016-07-02T12:07:58.253Z,24.55
2016-07-02T12:08:58.278Z,24.51
2016-07-02T12:09:58.304Z,24.54
2016-07-02T12:10:58.322Z,24.54
2016-07-02T12:11:58.345Z,24.5
2016-07-02T12:12:58.384Z,24.51
2016-07-02T12:13:58.402Z,24.48
2016-07-02T12:14:58.435Z,24.45
2016-07-02T12:15:58.481Z,24.45
2016-07-02T12:16:58.489Z,24.43
2016-07-02T12:17:58.525Z,24.4
2016-07-02T12:18:58.548Z,24.39
2016-07-02T12:19:58.583Z,24.47
2016-07-02T12:20:58.635Z,24.54
2016-07-02T12:21:59.236Z,24.53
2016-07-02T12:22:58.678Z,24.51
2016-07-02T12:23:58.705Z,24.58
2016-07-02T12:24:58.726Z,24.63
2016-07-02T12:25:58.777Z,24.65
2016-07-02T12:26:58.777Z,24.68
2016-07-02T12:27:58.807Z,24.74
2016-07-02T12:28:58.845Z,24.8
2016-07-02T12:29:58.882Z,24.8
2016-07-02T12:30:58.911Z,24.85
2016-07-02T12:31:58.932Z,24.86
2016-07-02T12:32:58.958Z,24.86
2016-07-02T12:33:58.991Z,24.84
2016-07-02T12:34:59.047Z,24.92
2016-07-02T12:35:59.051Z,24.86
2016-07-02T12:36:59.072Z,24.84
2016-07-02T12:37:59.119Z,24.88
2016-07-02T12:38:59.122Z,24.84
2016-07-02T12:39:59.167Z,24.84
2016-07-02T12:40:59.219Z,24.86
2016-07-02T12:41:59.203Z,24.84
2016-07-02T12:42:59.254Z,24.89
2016-07-02T12:43:59.260Z,24.85
2016-07-02T12:44:59.304Z,24.89
2016-07-02T12:45:59.351Z,24.88
2016-07-02T12:46:59.361Z,24.91
2016-07-02T12:47:59.376Z,24.88
2016-07-02T12:48:59.448Z,24.88
2016-07-02T12:49:59.459Z,24.88
2016-07-02T12:50:59.510Z,24.86
2016-07-02T12:51:59.537Z,24.89
2016-07-02T12:52:59.587Z,24.86
2016-07-02T12:53:59.544Z,24.91
2016-07-02T12:54:59.659Z,24.84
2016-07-02T12:55:59.650Z,24.85
2016-07-02T12:56:59.673Z,24.91